Time;durP1;ratioP1;P1;durP2;ratioP2;P2;SDS_P1;SDS_P2;PMS_P1;PMS_P2;Temp;Humidity;BMP_temperature;BMP_pressure;BME280_temperature;BME280_humidity;BME280_pressure;Samples;Min_cycle;Max_cycle;Signal;HPM_P1;HPM_P2
2021/06/24 00:02:06;;;;;;;49.38;16.57;;;;;;;28.22;58.45;99905.70;1799875;79;21048;-65
2021/06/24 00:04:33;;;;;;;46.02;14.13;;;;;;;28.21;58.51;99910.08;1797202;79;22900;-66
2021/06/24 00:07:01;;;;;;;39.90;13.13;;;;;;;28.19;58.56;99899.42;1792954;78;21025;-65
2021/06/24 00:09:28;;;;;;;36.20;11.30;;;;;;;28.18;58.63;99896.97;1791378;79;21033;-67
2021/06/24 00:11:54;;;;;;;47.23;12.15;;;;;;;28.15;58.67;99894.82;1802455;79;21343;-66
2021/06/24 00:14:22;;;;;;;39.45;12.25;;;;;;;28.13;58.74;99903.28;1804202;79;20994;-66
2021/06/24 00:16:50;;;;;;;40.73;11.80;;;;;;;28.11;58.84;99905.48;1795827;79;21048;-66
2021/06/24 00:19:16;;;;;;;38.70;11.85;;;;;;;28.10;58.91;99903.03;1803146;79;20998;-66
2021/06/24 00:21:44;;;;;;;48.42;12.45;;;;;;;28.09;58.96;99902.78;1808676;78;21076;-66
2021/06/24 00:24:11;;;;;;;38.85;12.33;;;;;;;28.08;59.11;99907.95;1732223;80;21013;-66
2021/06/24 00:26:38;;;;;;;44.95;12.73;;;;;;;28.04;59.14;99895.41;1733022;80;21081;-67
2021/06/24 00:29:04;;;;;;;45.52;12.40;;;;;;;28.03;59.23;99901.42;1749803;80;21145;-69
2021/06/24 00:31:31;;;;;;;41.08;12.53;;;;;;;28.00;59.34;99901.97;1793157;79;21025;-70
2021/06/24 00:33:57;;;;;;;48.52;14.35;;;;;;;27.97;59.49;99898.45;1790521;79;21537;-68
2021/06/24 00:36:25;;;;;;;44.80;11.35;;;;;;;27.95;59.62;99902.02;1792433;79;21073;-69
2021/06/24 00:38:52;;;;;;;48.98;11.70;;;;;;;27.92;59.70;99898.47;1802314;79;21509;-69
2021/06/24 00:41:18;;;;;;;49.73;12.82;;;;;;;27.90;59.71;99902.03;1726410;82;21218;-69
2021/06/24 00:43:46;;;;;;;41.95;13.50;;;;;;;27.89;59.84;99899.57;1716161;82;21058;-68
2021/06/24 00:46:12;;;;;;;42.50;12.13;;;;;;;27.87;59.96;99898.45;1724208;82;21108;-68
2021/06/24 00:48:39;;;;;;;48.58;13.95;;;;;;;27.84;60.04;99899.02;1797063;79;21783;-69
2021/06/24 00:51:06;;;;;;;44.38;11.75;;;;;;;27.81;60.06;99897.64;1799794;79;21071;-68
2021/06/24 00:53:34;;;;;;;34.25;11.50;;;;;;;27.80;60.10;99895.22;1801044;79;22332;-69
2021/06/24 00:56:01;;;;;;;43.58;14.18;;;;;;;27.77;60.21;99893.04;1808242;79;21030;-68
2021/06/24 00:58:31;;;;;;;55.92;14.25;;;;;;;27.75;60.42;99893.31;1764077;80;21121;-68
2021/06/24 01:00:59;;;;;;;53.28;14.85;;;;;;;27.74;60.43;99894.95;1796522;79;21084;-69
2021/06/24 01:03:28;;;;;;;44.58;14.63;;;;;;;27.73;60.44;99890.59;1781247;79;20994;-68
2021/06/24 01:05:55;;;;;;;52.50;13.10;;;;;;;27.72;60.42;99888.95;1805608;79;21829;-68
2021/06/24 01:08:29;;;;;;;62.80;13.75;;;;;;;27.71;60.57;99894.97;1789417;79;21081;-67
2021/06/24 01:10:57;;;;;;;46.08;12.98;;;;;;;27.68;60.69;99894.17;1789629;79;21494;-67
2021/06/24 01:13:25;;;;;;;54.55;13.05;;;;;;;27.67;60.74;99899.91;1788474;79;21057;-67
2021/06/24 01:15:52;;;;;;;52.00;12.55;;;;;;;27.64;60.97;99903.46;1793928;79;21083;-67
2021/06/24 01:18:18;;;;;;;53.92;14.18;;;;;;;27.63;60.91;99901.00;1712797;79;21843;-68
2021/06/24 01:20:45;;;;;;;56.33;14.68;;;;;;;27.61;60.96;99902.64;1800719;79;21038;-68
2021/06/24 01:23:13;;;;;;;53.80;12.70;;;;;;;27.60;61.10;99900.19;1796266;78;21858;-67
2021/06/24 01:25:40;;;;;;;46.08;13.93;;;;;;;27.59;61.01;99902.66;1809594;79;21025;-68
2021/06/24 01:28:09;;;;;;;51.68;15.15;;;;;;;27.56;61.04;99901.28;1784554;79;21044;-66
2021/06/24 01:30:39;;;;;;;45.90;13.95;;;;;;;27.54;61.02;99902.11;1796928;79;21925;-67
2021/06/24 01:33:08;;;;;;;42.85;12.30;;;;;;;27.54;61.09;99906.20;1793299;79;21509;-66
2021/06/24 01:35:35;;;;;;;48.48;13.18;;;;;;;27.51;61.12;99906.77;1804365;79;21001;-66
2021/06/24 01:38:05;;;;;;;49.20;13.25;;;;;;;27.50;61.27;99907.84;1790996;79;21517;-67
2021/06/24 01:40:32;;;;;;;45.60;13.45;;;;;;;27.47;61.14;99904.33;1736346;80;21080;-67
2021/06/24 01:42:59;;;;;;;40.78;11.85;;;;;;;27.45;61.34;99898.33;1740582;81;21100;-67
2021/06/24 01:45:27;;;;;;;51.92;12.55;;;;;;;27.42;61.42;99902.41;1743208;80;21539;-67
2021/06/24 01:47:53;;;;;;;45.83;13.95;;;;;;;27.41;61.46;99904.04;1742775;80;21066;-67
2021/06/24 01:50:20;;;;;;;45.38;12.28;;;;;;;27.39;61.50;99903.50;1737421;81;21033;-66
2021/06/24 01:52:49;;;;;;;53.10;13.88;;;;;;;27.38;61.54;99904.61;1754270;81;21054;-68
2021/06/24 01:55:17;;;;;;;46.48;13.85;;;;;;;27.35;61.54;99903.27;1712572;82;21111;-67
2021/06/24 01:57:45;;;;;;;44.50;13.75;;;;;;;27.33;61.73;99900.52;1732733;81;21025;-67
2021/06/24 02:00:17;;;;;;;52.58;13.48;;;;;;;27.31;61.79;99908.97;1741939;81;20983;-68
2021/06/24 02:02:45;;;;;;;54.35;13.98;;;;;;;27.31;61.63;99908.16;1748049;81;21010;-70
2021/06/24 02:05:14;;;;;;;46.55;12.75;;;;;;;27.28;61.75;99904.64;1741386;81;21006;-68
2021/06/24 02:07:42;;;;;;;42.13;12.63;;;;;;;27.26;61.71;99904.91;1732950;81;21133;-68
2021/06/24 02:10:21;;;;;;;47.73;13.22;;;;;;;27.24;61.57;99906.54;1750546;81;21069;-68
2021/06/24 02:12:49;;;;;;;47.98;12.88;;;;;;;27.21;61.57;99900.78;1737428;81;21482;-67
2021/06/24 02:15:17;;;;;;;52.83;13.15;;;;;;;27.18;61.67;99902.16;1731739;81;21082;-69
2021/06/24 02:17:44;;;;;;;53.95;13.95;;;;;;;27.16;61.73;99898.89;1804138;79;21072;-69
2021/06/24 02:20:15;;;;;;;44.10;13.10;;;;;;;27.16;61.53;99907.07;1793495;78;21073;-69
2021/06/24 02:22:43;;;;;;;53.87;13.20;;;;;;;27.15;61.48;99905.42;1803553;79;21061;-69
2021/06/24 02:25:14;;;;;;;46.68;12.13;;;;;;;27.14;61.43;99897.51;1768011;80;21135;-69
2021/06/24 02:27:59;;;;;;;45.12;12.10;;;;;;;27.12;61.20;99900.53;1733739;80;21621;-69
2021/06/24 02:30:30;;;;;;;63.98;12.95;;;;;;;27.11;60.67;99902.97;1735587;80;21735;-69
2021/06/24 02:32:58;;;;;;;49.23;13.65;;;;;;;27.10;60.30;99905.97;1745685;80;21139;-69
2021/06/24 02:35:25;;;;;;;56.00;14.00;;;;;;;27.08;60.06;99902.14;1732965;81;21002;-68
2021/06/24 02:37:55;;;;;;;50.45;13.60;;;;;;;27.07;59.83;99905.98;1778772;79;21006;-69
2021/06/24 02:40:24;;;;;;;53.05;13.43;;;;;;;27.07;59.67;99899.16;1793575;79;20978;-69
2021/06/24 02:42:50;;;;;;;44.58;12.15;;;;;;;27.06;59.56;99901.61;1786487;79;21097;-68
2021/06/24 02:45:17;;;;;;;46.95;12.40;;;;;;;27.06;59.67;99905.69;1809822;78;21505;-69
2021/06/24 02:47:45;;;;;;;58.28;13.15;;;;;;;27.05;59.71;99906.25;1795012;79;21033;-69
2021/06/24 02:50:13;;;;;;;46.20;13.53;;;;;;;27.05;59.47;99906.25;1786662;79;21053;-68
2021/06/24 02:52:40;;;;;;;52.08;13.38;;;;;;;27.04;59.63;99905.99;1797143;78;21634;-69
2021/06/24 02:55:09;;;;;;;49.83;13.83;;;;;;;27.04;59.74;99910.60;1790239;79;21069;-69
2021/06/24 02:57:37;;;;;;;57.25;13.32;;;;;;;27.03;59.78;99907.06;1731021;80;21101;-69
2021/06/24 03:00:10;;;;;;;44.55;13.30;;;;;;;27.03;59.92;99908.98;1802851;79;21014;-68
2021/06/24 03:02:38;;;;;;;48.08;12.95;;;;;;;27.02;59.88;99910.06;1807681;79;21022;-68
2021/06/24 03:05:07;;;;;;;44.50;11.45;;;;;;;27.02;60.02;99915.52;1789967;79;21042;-68
2021/06/24 03:07:33;;;;;;;43.78;12.47;;;;;;;27.02;59.96;99908.70;1801163;78;21098;-67
2021/06/24 03:10:20;;;;;;;53.30;13.90;;;;;;;27.01;60.06;99916.06;1792536;79;21792;-67
2021/06/24 03:12:48;;;;;;;50.73;13.03;;;;;;;27.01;60.06;99919.34;1790741;79;21060;-67
2021/06/24 03:15:16;;;;;;;47.20;11.93;;;;;;;27.01;60.24;99920.71;1810168;79;21037;-68
2021/06/24 03:17:43;;;;;;;48.63;12.58;;;;;;;26.99;60.39;99917.44;1790016;78;21473;-68
2021/06/24 03:20:12;;;;;;;47.17;14.10;;;;;;;26.98;60.52;99924.78;1805319;79;21261;-67
2021/06/24 03:22:40;;;;;;;40.65;13.00;;;;;;;26.99;60.56;99917.44;1798114;79;21061;-67
2021/06/24 03:25:12;;;;;;;52.45;13.90;;;;;;;27.00;60.49;99916.33;1776101;79;21021;-68
2021/06/24 03:27:38;;;;;;;43.50;12.68;;;;;;;27.01;60.32;99915.26;1773991;79;21088;-67
2021/06/24 03:30:22;;;;;;;46.42;12.50;;;;;;;27.01;60.12;99910.62;1690291;83;21010;-68
2021/06/24 03:32:50;;;;;;;50.43;12.65;;;;;;;27.02;60.01;99910.91;1767254;79;21092;-68
2021/06/24 03:35:16;;;;;;;56.85;12.05;;;;;;;27.03;59.86;99913.88;1791470;79;21095;-69
2021/06/24 03:37:43;;;;;;;42.75;12.33;;;;;;;27.04;59.82;99914.17;1742677;81;21067;-67
2021/06/24 03:40:17;;;;;;;52.73;13.22;;;;;;;27.05;59.57;99908.16;1707219;82;21553;-69
2021/06/24 03:42:42;;;;;;;45.35;12.50;;;;;;;27.07;59.36;99910.07;1720408;82;21380;-68
2021/06/24 03:45:12;;;;;;;44.05;12.35;;;;;;;27.09;59.33;99906.52;1725564;82;21049;-68
2021/06/24 03:47:41;;;;;;;48.38;12.60;;;;;;;27.11;59.29;99907.06;1729545;82;21152;-67
2021/06/24 03:50:10;;;;;;;51.53;13.48;;;;;;;27.13;59.26;99901.34;1729615;82;21105;-68
2021/06/24 03:52:37;;;;;;;47.30;13.30;;;;;;;27.16;59.37;99900.77;1731702;81;21128;-68
2021/06/24 03:55:06;;;;;;;43.48;12.20;;;;;;;27.17;59.37;99895.61;1738408;82;21018;-67
2021/06/24 03:57:33;;;;;;;48.58;11.97;;;;;;;27.19;59.39;99897.52;1721882;82;21068;-68
2021/06/24 04:00:03;;;;;;;43.38;12.78;;;;;;;27.21;59.29;99904.88;1781557;80;21095;-68
2021/06/24 04:02:31;;;;;;;42.13;11.68;;;;;;;27.24;59.21;99904.34;1771802;80;21105;-68
2021/06/24 04:04:58;;;;;;;53.17;13.95;;;;;;;27.25;59.20;99901.37;1766169;80;21141;-68
2021/06/24 04:07:25;;;;;;;38.10;11.33;;;;;;;27.29;59.26;99902.16;1776307;79;21521;-68
2021/06/24 04:09:53;;;;;;;44.18;10.65;;;;;;;27.31;59.21;99902.15;1732082;80;21018;-68
2021/06/24 04:12:20;;;;;;;49.18;12.70;;;;;;;27.35;58.93;99903.78;1758190;79;21685;-68
2021/06/24 04:14:49;;;;;;;54.95;11.83;;;;;;;27.37;58.03;99898.88;1771667;80;21070;-68
2021/06/24 04:17:19;;;;;;;45.25;12.47;;;;;;;27.41;57.92;99907.61;1780850;79;21561;-68
2021/06/24 04:23:47;;;;;;;37.67;11.12;;;;;;;27.48;57.27;99911.41;1765839;80;20979;-68
2021/06/24 04:26:15;;;;;;;50.45;11.63;;;;;;;27.49;57.40;99914.41;1738451;80;21955;-68
2021/06/24 04:28:42;;;;;;;52.98;13.15;;;;;;;27.52;56.43;99908.39;1756353;80;21036;-67
2021/06/24 04:31:10;;;;;;;43.78;12.40;;;;;;;27.58;56.42;99911.92;1761207;80;22006;-68
2021/06/24 04:33:36;;;;;;;39.92;11.80;;;;;;;27.63;56.92;99911.92;1775863;80;21212;-68
2021/06/24 04:36:05;;;;;;;38.98;11.53;;;;;;;27.68;57.10;99911.08;1745541;80;20986;-69
2021/06/24 04:38:31;;;;;;;42.13;11.33;;;;;;;27.73;56.89;99916.53;1776399;80;21111;-69
2021/06/24 04:40:59;;;;;;;45.12;12.20;;;;;;;27.79;56.67;99915.41;1719899;82;21064;-69
2021/06/24 04:43:27;;;;;;;40.58;11.38;;;;;;;27.84;56.46;99912.12;1766854;79;21489;-69
2021/06/24 04:45:55;;;;;;;44.77;11.78;;;;;;;27.88;56.46;99905.59;1777733;79;22085;-69
2021/06/24 04:48:25;;;;;;;33.88;12.00;;;;;;;27.94;56.34;99909.11;1761216;80;21038;-69
2021/06/24 04:50:56;;;;;;;52.58;12.45;;;;;;;27.99;55.71;99916.73;1720409;82;21145;-68
2021/06/24 04:53:22;;;;;;;45.08;12.18;;;;;;;28.03;55.25;99917.00;1739005;82;21043;-68
2021/06/24 04:55:51;;;;;;;31.90;10.93;;;;;;;28.10;54.90;99922.14;1787609;78;21065;-67
2021/06/24 04:58:19;;;;;;;40.58;11.70;;;;;;;28.14;54.61;99912.29;1749577;82;21003;-67
2021/06/24 05:00:53;;;;;;;42.03;11.93;;;;;;;28.19;54.56;99914.45;1752499;79;20986;-70
2021/06/24 05:04:28;;;;;;;38.55;11.78;;;;;;;28.33;54.44;99917.37;1785648;79;22778;-69
2021/06/24 05:06:57;;;;;;;44.13;12.33;;;;;;;28.34;54.08;99930.50;1747361;81;21013;-69
2021/06/24 05:09:28;;;;;;;45.70;11.25;;;;;;;28.39;53.90;99924.99;1747133;80;21137;-69
2021/06/24 05:11:54;;;;;;;42.23;10.85;;;;;;;28.43;53.50;99924.69;1748961;80;21287;-69
2021/06/24 05:14:21;;;;;;;44.90;12.35;;;;;;;28.47;53.39;99918.11;1738903;80;21037;-70
2021/06/24 05:16:48;;;;;;;42.78;11.35;;;;;;;28.52;53.01;99915.39;1756080;81;21504;-69
2021/06/24 05:19:16;;;;;;;41.80;10.63;;;;;;;28.55;52.73;99917.55;1745389;81;20999;-69
2021/06/24 05:21:42;;;;;;;34.03;9.48;;;;;;;28.60;52.97;99914.78;1755812;81;21114;-71
2021/06/24 05:24:10;;;;;;;29.98;9.15;;;;;;;28.65;52.62;99921.59;1744754;81;21025;-69
2021/06/24 05:26:37;;;;;;;35.03;10.95;;;;;;;28.69;52.37;99913.09;1733891;80;21089;-67
2021/06/24 05:29:03;;;;;;;37.17;9.55;;;;;;;28.72;51.82;99915.23;1739569;80;21136;-68
2021/06/24 05:31:31;;;;;;;38.30;10.53;;;;;;;28.75;51.60;99916.05;1747971;81;21057;-68
2021/06/24 05:33:59;;;;;;;38.17;10.35;;;;;;;28.76;51.35;99901.28;1746450;81;21965;-67
2021/06/24 05:36:25;;;;;;;35.28;10.23;;;;;;;28.78;51.21;99900.45;1751860;81;21632;-67
2021/06/24 05:38:52;;;;;;;37.45;9.60;;;;;;;28.82;51.06;99902.87;1734298;80;21599;-69
2021/06/24 05:41:18;;;;;;;31.77;9.63;;;;;;;28.86;51.07;99910.48;1743685;80;21034;-69
2021/06/24 05:43:45;;;;;;;34.85;11.45;;;;;;;28.90;51.05;99911.58;1739651;80;21037;-68
2021/06/24 05:46:11;;;;;;;29.80;9.43;;;;;;;28.95;51.07;99908.78;1748057;81;21581;-68
2021/06/24 05:48:38;;;;;;;31.48;9.65;;;;;;;28.98;51.32;99910.39;1738729;80;21163;-69
2021/06/24 05:51:04;;;;;;;36.95;9.90;;;;;;;29.04;51.54;99914.46;1745213;80;21060;-67
2021/06/24 05:53:32;;;;;;;35.43;9.95;;;;;;;29.08;51.50;99914.95;1727988;81;21065;-68
2021/06/24 05:55:59;;;;;;;31.52;10.35;;;;;;;29.11;51.74;99910.29;1726474;81;21046;-68
2021/06/24 05:58:29;;;;;;;36.38;9.70;;;;;;;29.16;52.24;99908.89;1734052;80;21092;-69
2021/06/24 06:00:57;;;;;;;29.07;9.80;;;;;;;29.19;52.40;99906.95;1730773;81;21006;-70
2021/06/24 06:03:24;;;;;;;30.25;10.58;;;;;;;29.24;52.60;99903.91;1729299;80;21066;-68
2021/06/24 06:05:51;;;;;;;28.40;9.83;;;;;;;29.28;53.38;99907.69;1735069;81;21052;-68
2021/06/24 06:08:18;;;;;;;30.95;10.70;;;;;;;29.31;53.49;99903.83;1726836;81;21089;-68
2021/06/24 06:10:44;;;;;;;33.18;10.43;;;;;;;29.35;53.80;99905.44;1727308;81;21140;-69
2021/06/24 06:13:11;;;;;;;24.35;9.78;;;;;;;29.38;53.50;99906.21;1733181;81;21541;-67
2021/06/24 06:15:41;;;;;;;31.27;9.95;;;;;;;29.39;53.57;99908.66;1733956;80;21034;-67
2021/06/24 06:18:17;;;;;;;24.92;9.40;;;;;;;29.42;53.89;99912.77;1734026;80;21088;-68
2021/06/24 06:20:44;;;;;;;22.32;8.75;;;;;;;29.44;53.89;99910.55;1727812;81;21076;-69
2021/06/24 06:23:12;;;;;;;21.48;9.08;;;;;;;29.46;54.05;99911.60;1735829;80;21081;-68
2021/06/24 06:25:39;;;;;;;31.62;9.70;;;;;;;29.49;54.58;99911.84;1753401;81;21057;-68
2021/06/24 06:28:05;;;;;;;27.20;9.15;;;;;;;29.51;54.71;99912.38;1751019;81;21046;-67
2021/06/24 06:30:31;;;;;;;23.05;8.90;;;;;;;29.53;55.01;99909.34;1738617;81;21050;-68
2021/06/24 06:33:01;;;;;;;20.27;8.70;;;;;;;29.55;55.37;99913.45;1740542;81;21005;-69
2021/06/24 06:35:30;;;;;;;29.48;7.95;;;;;;;29.55;54.79;99906.61;1728794;81;21913;-68
2021/06/24 06:37:56;;;;;;;26.02;9.63;;;;;;;29.58;54.73;99906.56;1731419;81;21026;-67
2021/06/24 06:40:22;;;;;;;19.07;7.95;;;;;;;29.61;54.63;99901.86;1736741;80;21600;-69
2021/06/24 06:42:49;;;;;;;21.35;7.70;;;;;;;29.64;54.57;99906.77;1749531;80;21135;-68
2021/06/24 06:45:18;;;;;;;23.95;9.20;;;;;;;29.65;54.56;99902.94;1737533;81;21041;-66
2021/06/24 06:47:46;;;;;;;21.70;8.18;;;;;;;29.67;54.38;99900.72;1732849;81;21840;-66
2021/06/24 06:50:13;;;;;;;22.60;8.35;;;;;;;29.70;54.42;99904.23;1741916;81;21034;-66
2021/06/24 06:52:40;;;;;;;23.27;8.30;;;;;;;29.72;54.32;99901.20;1749857;80;21066;-67
2021/06/24 06:55:07;;;;;;;20.97;8.28;;;;;;;29.74;54.18;99899.83;1751450;81;21025;-67
2021/06/24 06:57:33;;;;;;;23.50;8.08;;;;;;;29.75;54.27;99894.63;1743841;80;21045;-66
2021/06/24 07:00:05;;;;;;;24.98;8.83;;;;;;;29.77;54.04;99889.67;1748443;81;21149;-68
2021/06/24 07:02:31;;;;;;;23.60;8.68;;;;;;;29.78;54.16;99887.73;1747606;80;21034;-66
2021/06/24 07:04:58;;;;;;;22.27;8.38;;;;;;;29.81;54.35;99889.09;1738626;80;21528;-68
2021/06/24 07:07:24;;;;;;;21.90;9.20;;;;;;;29.82;54.23;99889.34;1755642;80;21088;-68
2021/06/24 07:09:53;;;;;;;24.10;8.95;;;;;;;29.82;54.43;99883.30;1746836;81;21200;-67
2021/06/24 07:12:20;;;;;;;24.23;9.73;;;;;;;29.83;54.28;99884.95;1747002;80;21161;-67
2021/06/24 07:14:48;;;;;;;27.35;9.28;;;;;;;29.85;54.52;99893.69;1735717;81;21148;-66
2021/06/24 07:17:14;;;;;;;30.10;8.85;;;;;;;29.86;54.72;99889.02;1743482;80;21045;-66
2021/06/24 07:19:42;;;;;;;20.02;8.90;;;;;;;29.87;54.66;99892.83;1726487;78;21041;-56
2021/06/24 07:22:08;;;;;;;27.10;8.48;;;;;;;29.88;54.36;99891.73;1672273;83;21077;-65
2021/06/24 07:24:34;;;;;;;20.95;8.55;;;;;;;29.88;54.08;99895.84;1691041;83;21847;-64
2021/06/24 07:27:01;;;;;;;19.92;8.40;;;;;;;29.87;53.07;99898.31;1708154;83;21024;-64
2021/06/24 07:29:27;;;;;;;18.32;7.92;;;;;;;29.81;50.76;99894.01;1704057;83;21020;-65
2021/06/24 07:31:55;;;;;;;19.50;7.97;;;;;;;29.71;48.73;99903.13;1700045;83;21091;-69
2021/06/24 07:34:22;;;;;;;17.00;7.80;;;;;;;29.56;46.83;99902.74;1705512;83;21263;-70
2021/06/24 07:36:50;;;;;;;18.70;7.78;;;;;;;29.40;45.35;99906.77;1709278;83;21101;-68
2021/06/24 07:39:17;;;;;;;21.50;7.08;;;;;;;29.26;44.17;99904.43;1692164;83;21029;-64
2021/06/24 07:41:43;;;;;;;16.60;7.50;;;;;;;29.13;43.25;99904.54;1691565;83;21683;-66
2021/06/24 07:44:10;;;;;;;18.20;6.85;;;;;;;29.00;42.58;99911.48;1701275;83;21119;-68
2021/06/24 07:46:37;;;;;;;18.50;7.55;;;;;;;28.88;42.70;99905.55;1694458;83;21626;-68
2021/06/24 07:49:04;;;;;;;17.82;7.95;;;;;;;28.79;43.31;99913.00;1692635;83;21152;-65
2021/06/24 07:51:31;;;;;;;21.70;7.28;;;;;;;28.76;43.73;99919.05;1680713;83;21590;-66
2021/06/24 07:53:58;;;;;;;18.60;7.58;;;;;;;28.76;43.71;99911.38;1710971;83;21017;-65
2021/06/24 07:56:24;;;;;;;15.43;7.30;;;;;;;28.79;43.61;99917.66;1697839;83;21118;-65
2021/06/24 07:58:53;;;;;;;20.37;7.67;;;;;;;28.83;43.61;99918.16;1699551;83;21093;-64
2021/06/24 08:01:20;;;;;;;14.43;6.92;;;;;;;28.88;43.55;99917.32;1707455;83;21897;-64
2021/06/24 08:03:46;;;;;;;17.48;7.50;;;;;;;28.93;43.42;99915.08;1697436;83;21085;-65
2021/06/24 08:06:12;;;;;;;17.65;7.15;;;;;;;28.98;43.28;99915.05;1692646;83;21099;-66
2021/06/24 08:08:39;;;;;;;18.60;8.00;;;;;;;29.03;42.98;99913.62;1699763;83;21032;-67
2021/06/24 08:11:05;;;;;;;14.23;6.90;;;;;;;29.08;42.90;99920.98;1703198;83;21040;-64
2021/06/24 08:13:31;;;;;;;11.80;7.03;;;;;;;29.11;43.03;99922.59;1695321;83;21084;-67
2021/06/24 08:15:58;;;;;;;17.77;6.87;;;;;;;29.14;42.58;99913.83;1724064;81;21103;-71
2021/06/24 08:18:24;;;;;;;12.23;6.33;;;;;;;29.18;43.20;99916.81;1718670;81;21554;-67
2021/06/24 08:20:51;;;;;;;15.40;5.72;;;;;;;29.15;42.66;99917.41;1717895;81;21124;-68
2021/06/24 08:23:18;;;;;;;14.98;6.42;;;;;;;29.09;41.81;99917.13;1714750;81;21056;-67
2021/06/24 08:25:45;;;;;;;12.95;6.62;;;;;;;29.01;41.12;99908.99;1721877;81;21165;-70
2021/06/24 08:28:12;;;;;;;18.35;6.15;;;;;;;28.92;40.64;99914.84;1706610;82;21112;-68
2021/06/24 08:30:44;;;;;;;14.20;6.53;;;;;;;28.82;40.31;99916.55;1705245;82;21083;-67
2021/06/24 08:33:13;;;;;;;12.55;6.37;;;;;;;28.74;40.12;99914.95;1704942;82;28197;-67
2021/06/24 08:35:39;;;;;;;12.70;5.92;;;;;;;28.65;39.96;99920.23;1705339;82;21039;-69
2021/06/24 08:38:06;;;;;;;12.70;6.10;;;;;;;28.56;39.90;99913.72;1703593;82;21159;-68
2021/06/24 08:40:32;;;;;;;12.25;6.10;;;;;;;28.50;39.81;99920.30;1706883;82;21084;-66
2021/06/24 08:42:59;;;;;;;13.45;6.42;;;;;;;28.42;39.76;99917.05;1706746;82;21095;-70
2021/06/24 08:45:25;;;;;;;12.40;5.87;;;;;;;28.36;39.72;99911.36;1706483;82;21086;-68
2021/06/24 08:47:51;;;;;;;11.30;5.60;;;;;;;28.32;39.71;99917.65;1707908;82;21099;-70
2021/06/24 08:50:18;;;;;;;12.13;5.58;;;;;;;28.26;39.67;99917.41;1708319;82;21935;-74
2021/06/24 08:52:48;;;;;;;12.05;5.55;;;;;;;28.21;39.73;99914.17;1700264;82;21507;-68
2021/06/24 08:55:19;;;;;;;10.38;5.62;;;;;;;28.17;39.94;99920.74;1708480;82;21055;-66
2021/06/24 08:57:46;;;;;;;13.20;5.95;;;;;;;28.13;40.07;99917.50;1711163;82;21548;-67
2021/06/24 09:00:14;;;;;;;11.18;5.45;;;;;;;28.08;40.15;99916.95;1720506;82;21019;-69
2021/06/24 09:02:50;;;;;;;12.03;5.22;;;;;;;28.04;40.40;99908.50;1704424;82;21311;-69
2021/06/24 09:05:16;;;;;;;9.75;5.72;;;;;;;28.03;40.80;99912.34;1703766;82;21087;-74
2021/06/24 09:07:49;;;;;;;10.80;4.75;;;;;;;28.00;40.97;99914.27;1703005;82;21570;-71
2021/06/24 09:10:16;;;;;;;9.78;5.80;;;;;;;27.97;40.95;99910.74;1705092;82;21094;-70
2021/06/24 09:12:55;;;;;;;11.57;4.70;;;;;;;27.95;40.94;99908.84;1709441;82;21036;-69
2021/06/24 09:15:25;;;;;;;13.10;5.90;;;;;;;27.93;40.89;99905.58;1709050;82;21158;-69
2021/06/24 09:17:51;;;;;;;11.25;5.83;;;;;;;27.91;40.78;99905.56;1725425;82;21068;-67
2021/06/24 09:20:29;;;;;;;10.08;5.75;;;;;;;27.87;40.64;99901.17;1711544;82;21600;-64
2021/06/24 09:23:12;;;;;;;11.60;5.17;;;;;;;27.86;40.75;99906.38;1711467;82;21127;-68
2021/06/24 09:25:43;;;;;;;10.60;5.75;;;;;;;27.84;40.88;99905.29;1681200;84;20988;-69
2021/06/24 09:28:09;;;;;;;11.08;6.08;;;;;;;27.81;40.96;99899.57;1706327;82;21799;-66
2021/06/24 09:30:39;;;;;;;13.10;5.80;;;;;;;27.77;40.94;99903.40;1706700;82;21088;-67
2021/06/24 09:33:17;;;;;;;13.15;5.55;;;;;;;27.76;40.74;99904.52;1705116;82;21067;-69
2021/06/24 09:35:56;;;;;;;10.35;5.83;;;;;;;27.75;40.53;99902.05;1706908;82;21855;-68
2021/06/24 09:38:22;;;;;;;11.43;5.47;;;;;;;27.71;40.37;99909.97;1718656;82;20989;-68
2021/06/24 09:40:57;;;;;;;11.57;5.60;;;;;;;27.68;40.31;99904.25;1745320;81;21157;-65
2021/06/24 09:43:35;;;;;;;8.53;5.90;;;;;;;27.65;40.14;99905.08;1748488;81;21027;-67
2021/06/24 09:46:17;;;;;;;10.05;5.50;;;;;;;27.62;39.87;99903.45;1727770;81;21060;-67
2021/06/24 09:48:51;;;;;;;9.95;5.17;;;;;;;27.59;39.67;99899.93;1733742;81;21052;-69
2021/06/24 09:51:22;;;;;;;10.57;5.50;;;;;;;27.57;39.82;99901.56;1724791;82;21094;-67
2021/06/24 09:53:59;;;;;;;7.58;5.17;;;;;;;27.55;39.96;99894.76;1723781;81;21150;-68
2021/06/24 09:56:51;;;;;;;8.40;5.03;;;;;;;27.53;39.96;99899.12;1724929;81;21051;-68
2021/06/24 09:59:18;;;;;;;12.10;5.25;;;;;;;27.51;39.87;99890.95;1723654;81;21021;-68
2021/06/24 10:01:49;;;;;;;7.53;5.15;;;;;;;27.48;39.71;99893.67;1725171;81;21075;-66
2021/06/24 10:04:22;;;;;;;7.42;4.42;;;;;;;27.48;39.59;99892.30;1735516;81;21155;-63
2021/06/24 10:06:54;;;;;;;9.20;5.00;;;;;;;27.47;39.48;99885.23;1736941;81;21132;-65
2021/06/24 10:09:24;;;;;;;8.03;5.10;;;;;;;27.44;39.32;99892.03;1741448;81;21035;-66
2021/06/24 10:11:50;;;;;;;9.03;4.22;;;;;;;27.44;39.18;99893.40;1744563;81;21093;-68
2021/06/24 10:14:19;;;;;;;8.15;4.05;;;;;;;27.43;39.03;99890.97;1733906;81;21056;-63
2021/06/24 10:16:55;;;;;;;9.15;4.30;;;;;;;27.42;38.91;99891.50;1727647;81;21094;-69
2021/06/24 10:19:36;;;;;;;6.60;4.65;;;;;;;27.40;38.82;99886.87;1727185;81;21149;-66
2021/06/24 10:22:15;;;;;;;9.93;4.70;;;;;;;27.39;38.71;99886.61;1728742;81;21048;-67
2021/06/24 10:24:47;;;;;;;7.30;4.53;;;;;;;27.37;38.65;99889.33;1735074;81;21055;-67
2021/06/24 10:27:14;;;;;;;10.50;5.30;;;;;;;27.36;38.53;99878.16;1728604;81;21052;-66
2021/06/24 10:29:50;;;;;;;9.18;4.90;;;;;;;27.34;38.49;99875.70;1731031;81;21057;-66
2021/06/24 10:32:27;;;;;;;7.15;4.35;;;;;;;27.36;38.41;99878.97;1728980;81;21116;-70
2021/06/24 10:34:54;;;;;;;7.97;4.70;;;;;;;27.38;38.35;99884.96;1734847;81;21487;-68
2021/06/24 10:37:23;;;;;;;9.78;4.78;;;;;;;27.39;38.35;99876.22;1726120;81;21608;-70
2021/06/24 10:40:02;;;;;;;8.25;4.50;;;;;;;27.40;38.40;99880.60;1736036;81;21036;-71
2021/06/24 10:42:29;;;;;;;8.10;4.55;;;;;;;27.43;38.52;99878.70;1704461;83;21057;-68
2021/06/24 10:45:06;;;;;;;7.90;4.45;;;;;;;27.46;38.53;99875.39;1734538;81;21147;-70
2021/06/24 10:47:40;;;;;;;8.28;4.45;;;;;;;27.49;38.52;99873.49;1729559;81;21076;-71
2021/06/24 10:50:32;;;;;;;6.22;4.40;;;;;;;27.54;38.52;99868.55;1732796;81;21053;-71
2021/06/24 10:53:13;;;;;;;8.23;4.28;;;;;;;27.57;38.50;99867.45;1720702;81;21056;-69
2021/06/24 10:55:41;;;;;;;8.38;4.55;;;;;;;27.61;38.42;99865.80;1725821;82;21524;-70
2021/06/24 10:58:27;;;;;;;8.88;4.53;;;;;;;27.64;38.53;99863.89;1730392;81;21293;-72
2021/06/24 11:00:54;;;;;;;7.80;4.70;;;;;;;27.69;38.53;99867.14;1725249;81;21028;-69
2021/06/24 11:03:29;;;;;;;8.80;3.95;;;;;;;27.72;38.54;99861.14;1733188;82;21103;-73
2021/06/24 11:05:55;;;;;;;8.05;4.40;;;;;;;27.76;38.47;99854.02;1724224;82;21092;-75
2021/06/24 11:08:29;;;;;;;6.17;4.15;;;;;;;27.79;38.46;99844.45;1724674;83;21040;-66
2021/06/24 11:11:04;;;;;;;6.75;4.35;;;;;;;27.83;38.40;99844.15;1729810;82;21111;-68
2021/06/24 11:13:45;;;;;;;6.85;4.70;;;;;;;27.87;38.38;99847.95;1737488;82;21670;-66
2021/06/24 11:16:20;;;;;;;7.75;4.60;;;;;;;27.91;38.37;99846.34;1719436;82;21080;-68
2021/06/24 11:18:55;;;;;;;9.88;5.00;;;;;;;27.93;38.31;99842.78;1725693;81;21092;-76
2021/06/24 11:21:36;;;;;;;15.60;6.30;;;;;;;27.96;38.96;99851.76;1733866;81;21150;-73
2021/06/24 11:24:13;;;;;;;17.80;7.35;;;;;;;28.02;39.66;99838.34;1728631;81;21145;-72
2021/06/24 11:26:53;;;;;;;21.07;8.65;;;;;;;28.13;39.73;99840.48;1733215;81;21040;-73
2021/06/24 11:29:35;;;;;;;18.25;7.60;;;;;;;28.27;40.17;99832.47;1733852;81;21346;-74
2021/06/24 11:32:15;;;;;;;20.62;8.13;;;;;;;28.41;40.77;99823.91;1729940;81;21160;-71
2021/06/24 11:34:52;;;;;;;14.13;7.35;;;;;;;28.55;41.31;99829.57;1733297;81;21067;-71
2021/06/24 11:37:26;;;;;;;21.20;8.08;;;;;;;28.70;41.54;99827.23;1736699;81;21145;-71